createdAt,value
2023-04-11T00:00:08.000Z,9.3
2023-04-11T00:01:13.000Z,9.3
2023-04-11T00:02:19.000Z,9.3
2023-04-11T00:03:25.000Z,9.6
2023-04-11T00:04:31.000Z,9.6
2023-04-11T00:05:37.000Z,10.3
2023-04-11T00:06:43.000Z,9.9
2023-04-11T00:08:55.000Z,9.9
2023-04-11T00:10:01.000Z,10.3
2023-04-11T00:11:07.000Z,10.3
2023-04-11T00:12:13.000Z,9.6
2023-04-11T00:13:19.000Z,9.9
2023-04-11T00:14:25.000Z,9.3
2023-04-11T00:15:31.000Z,10.6
2023-04-11T00:16:37.000Z,9
2023-04-11T00:17:43.000Z,9.3
2023-04-11T00:18:49.000Z,9.9
2023-04-11T00:19:55.000Z,9.3
2023-04-11T00:21:01.000Z,9
2023-04-11T00:22:07.000Z,9.3
2023-04-11T00:23:13.000Z,9
2023-04-11T00:24:19.000Z,10.3
2023-04-11T00:25:25.000Z,9.6
2023-04-11T00:27:36.000Z,9.9
2023-04-11T00:28:42.000Z,9.6
2023-04-11T00:29:48.000Z,9.9
2023-04-11T00:30:54.000Z,9
2023-04-11T00:31:59.000Z,9.9
2023-04-11T00:33:04.000Z,9.6
2023-04-11T00:34:10.000Z,9.3
2023-04-11T00:35:16.000Z,9
2023-04-11T00:36:22.000Z,9.6
2023-04-11T00:37:28.000Z,9.3
2023-04-11T00:38:34.000Z,10.3
2023-04-11T00:39:40.000Z,9.3
2023-04-11T00:42:59.000Z,9.9
2023-04-11T00:44:05.000Z,9.9
2023-04-11T00:45:11.000Z,9.6
2023-04-11T00:46:16.000Z,9.6
2023-04-11T00:47:22.000Z,9.9
2023-04-11T00:48:28.000Z,9.6
2023-04-11T00:49:34.000Z,9
2023-04-11T00:50:39.000Z,9.3
2023-04-11T00:51:45.000Z,9.6
2023-04-11T00:52:51.000Z,9.6
2023-04-11T00:53:57.000Z,9.6
2023-04-11T00:55:04.000Z,9
2023-04-11T00:56:10.000Z,9.3
2023-04-11T00:57:16.000Z,9.6
2023-04-11T00:59:27.000Z,9.3
2023-04-11T01:00:32.000Z,9
2023-04-11T01:01:38.000Z,10.3
2023-04-11T01:02:44.000Z,9.9
2023-04-11T01:03:50.000Z,9.3
2023-04-11T01:04:56.000Z,9.3
2023-04-11T01:06:02.000Z,9.3
2023-04-11T01:07:08.000Z,9.9
2023-04-11T01:08:14.000Z,9.6
2023-04-11T01:09:21.000Z,9.3
2023-04-11T01:10:26.000Z,9.9
2023-04-11T01:11:31.000Z,9.9
2023-04-11T01:12:37.000Z,9.9
2023-04-11T01:14:49.000Z,9.6
2023-04-11T01:15:55.000Z,9.3
2023-04-11T01:17:01.000Z,9.6
2023-04-11T01:18:07.000Z,9.6
2023-04-11T01:19:13.000Z,9.3
2023-04-11T01:20:19.000Z,9.9
2023-04-11T01:21:25.000Z,9.3
2023-04-11T01:22:32.000Z,9.6
2023-04-11T01:23:38.000Z,8.7
2023-04-11T01:24:44.000Z,9.3
2023-04-11T01:25:49.000Z,9.9
2023-04-11T01:26:55.000Z,9.6
2023-04-11T01:28:01.000Z,10.9
2023-04-11T01:29:07.000Z,9.3
2023-04-11T01:30:13.000Z,9.9
2023-04-11T01:31:19.000Z,9
2023-04-11T01:32:25.000Z,9.3
2023-04-11T01:33:31.000Z,9
2023-04-11T01:34:36.000Z,9.6
2023-04-11T01:35:41.000Z,9
2023-04-11T01:36:48.000Z,9.6
2023-04-11T01:37:54.000Z,10.3
2023-04-11T01:39:00.000Z,9.3
2023-04-11T01:41:12.000Z,9.6
2023-04-11T01:42:18.000Z,9
2023-04-11T01:43:24.000Z,9.6
2023-04-11T01:44:30.000Z,9.3
2023-04-11T01:45:36.000Z,9.9
2023-04-11T01:47:48.000Z,9.3
2023-04-11T01:48:53.000Z,9.3
2023-04-11T01:49:59.000Z,9.3
2023-04-11T01:51:05.000Z,10.3
2023-04-11T01:52:11.000Z,9.9
2023-04-11T01:53:17.000Z,9.3
2023-04-11T01:54:23.000Z,9.6
2023-04-11T01:55:29.000Z,9.6
2023-04-11T01:56:35.000Z,9.6
2023-04-11T01:57:41.000Z,9.3
2023-04-11T01:58:47.000Z,9.6
2023-04-11T01:59:53.000Z,9.3
2023-04-11T02:00:58.000Z,9.3
2023-04-11T02:02:03.000Z,9.9
2023-04-11T02:03:10.000Z,9.3
2023-04-11T02:04:16.000Z,9
2023-04-11T02:05:22.000Z,9.9
2023-04-11T02:06:28.000Z,9.6
2023-04-11T02:07:34.000Z,9.6
2023-04-11T02:09:46.000Z,9
2023-04-11T02:10:52.000Z,9
2023-04-11T02:11:58.000Z,9
2023-04-11T02:13:04.000Z,9.3
2023-04-11T02:14:10.000Z,9.3
2023-04-11T02:15:16.000Z,9.9
2023-04-11T02:16:21.000Z,8.3
2023-04-11T02:17:28.000Z,9.9
2023-04-11T02:18:34.000Z,10.3
2023-04-11T02:19:40.000Z,9.6
2023-04-11T02:21:52.000Z,9.6
2023-04-11T02:22:57.000Z,9.6
2023-04-11T02:24:02.000Z,9
2023-04-11T02:25:08.000Z,9.6
2023-04-11T02:26:14.000Z,9.6
2023-04-11T02:27:20.000Z,9
2023-04-11T02:28:26.000Z,9
2023-04-11T02:30:39.000Z,9.3
2023-04-11T02:31:44.000Z,8.3
2023-04-11T02:32:50.000Z,9.3
2023-04-11T02:33:56.000Z,8.7
2023-04-11T02:35:02.000Z,9.6
2023-04-11T02:36:08.000Z,9.3
2023-04-11T02:37:14.000Z,9.3
2023-04-11T02:38:20.000Z,9.9
2023-04-11T02:39:26.000Z,9.6
2023-04-11T02:42:44.000Z,9
2023-04-11T02:43:49.000Z,9.9
2023-04-11T02:44:55.000Z,9
2023-04-11T02:46:01.000Z,9.6
2023-04-11T02:47:07.000Z,9.3
2023-04-11T02:48:13.000Z,9.9
2023-04-11T02:49:19.000Z,9
2023-04-11T02:50:25.000Z,9
2023-04-11T02:51:31.000Z,9
2023-04-11T02:53:43.000Z,9.6
2023-04-11T02:54:49.000Z,9.6
2023-04-11T02:55:55.000Z,9.6
2023-04-11T02:57:01.000Z,9.3
2023-04-11T02:58:07.000Z,9
2023-04-11T02:59:13.000Z,9
2023-04-11T03:00:19.000Z,9.6
2023-04-11T03:01:25.000Z,8.7
2023-04-11T03:02:31.000Z,9.3
2023-04-11T03:04:43.000Z,9.6
2023-04-11T03:05:49.000Z,9.6
2023-04-11T03:06:55.000Z,9
2023-04-11T03:08:01.000Z,9.3
2023-04-11T03:09:07.000Z,9.6
2023-04-11T03:10:13.000Z,9
2023-04-11T03:11:19.000Z,9.6
2023-04-11T03:12:25.000Z,9
2023-04-11T03:14:37.000Z,9
2023-04-11T03:15:43.000Z,9.3
2023-04-11T03:16:49.000Z,8.7
2023-04-11T03:17:55.000Z,8.7
2023-04-11T03:19:01.000Z,9.9
2023-04-11T03:20:07.000Z,8.7
2023-04-11T03:21:13.000Z,8.3
2023-04-11T03:22:19.000Z,9.3
2023-04-11T03:23:25.000Z,9.6
2023-04-11T03:24:31.000Z,9.6
2023-04-11T03:25:37.000Z,9.3
2023-04-11T03:26:43.000Z,9.6
2023-04-11T03:27:48.000Z,9
2023-04-11T03:28:54.000Z,8.7
2023-04-11T03:30:00.000Z,9
2023-04-11T03:31:06.000Z,8.7
2023-04-11T03:32:12.000Z,9.3
2023-04-11T03:33:18.000Z,9
2023-04-11T03:34:24.000Z,9
2023-04-11T03:35:30.000Z,8.3
2023-04-11T03:36:36.000Z,9.3
2023-04-11T03:37:42.000Z,9.3
2023-04-11T03:38:48.000Z,9.6
2023-04-11T03:39:53.000Z,9.3
2023-04-11T03:40:58.000Z,9.3
2023-04-11T03:42:05.000Z,8.7
2023-04-11T03:43:11.000Z,9.3
2023-04-11T03:44:17.000Z,9.3
2023-04-11T03:45:23.000Z,9.3
2023-04-11T03:46:29.000Z,8.7
2023-04-11T03:48:41.000Z,9.6
2023-04-11T03:49:47.000Z,8.7
2023-04-11T03:50:53.000Z,9.3
2023-04-11T03:51:59.000Z,9
2023-04-11T03:53:05.000Z,8.7
2023-04-11T03:54:11.000Z,9.3
2023-04-11T03:55:16.000Z,8.7
2023-04-11T03:56:23.000Z,9.6
2023-04-11T03:57:29.000Z,9.3
2023-04-11T03:59:41.000Z,9.3
2023-04-11T04:00:46.000Z,9.9
2023-04-11T04:01:51.000Z,9.3
2023-04-11T04:02:57.000Z,9.6
2023-04-11T04:04:03.000Z,9.9
2023-04-11T04:05:09.000Z,9.3
2023-04-11T04:06:15.000Z,9.3
2023-04-11T04:07:21.000Z,8.7
2023-04-11T04:08:27.000Z,8.3
2023-04-11T04:10:39.000Z,9.3
2023-04-11T04:11:46.000Z,9.6
2023-04-11T04:12:52.000Z,9
2023-04-11T04:13:58.000Z,9.9
2023-04-11T04:16:10.000Z,9.6
2023-04-11T04:17:15.000Z,9.6
2023-04-11T04:18:20.000Z,9.3
2023-04-11T04:19:26.000Z,9
2023-04-11T04:20:32.000Z,8.7
2023-04-11T04:21:38.000Z,9
2023-04-11T04:22:44.000Z,9.3
2023-04-11T04:23:50.000Z,8.7
2023-04-11T04:24:56.000Z,8.7
2023-04-11T04:26:03.000Z,9.9
2023-04-11T04:27:09.000Z,8.3
2023-04-11T04:28:15.000Z,8.7
2023-04-11T04:29:20.000Z,9.3
2023-04-11T04:30:25.000Z,9.6
2023-04-11T04:31:31.000Z,9.3
2023-04-11T04:32:37.000Z,9
2023-04-11T04:33:43.000Z,9.3
2023-04-11T04:34:49.000Z,9
2023-04-11T04:35:55.000Z,9
2023-04-11T04:37:01.000Z,9.6
2023-04-11T04:38:07.000Z,9
2023-04-11T04:39:14.000Z,9
2023-04-11T04:40:20.000Z,9
2023-04-11T04:41:25.000Z,9.6
2023-04-11T04:42:30.000Z,9
2023-04-11T04:43:36.000Z,8.7
2023-04-11T04:44:42.000Z,8.3
2023-04-11T04:46:54.000Z,9.3
2023-04-11T04:48:00.000Z,9
2023-04-11T04:49:06.000Z,8.7
2023-04-11T04:50:12.000Z,9
2023-04-11T04:51:18.000Z,9.6
2023-04-11T04:52:24.000Z,8.7
2023-04-11T04:53:31.000Z,9
2023-04-11T04:54:37.000Z,8.3
2023-04-11T04:55:43.000Z,9
2023-04-11T04:56:48.000Z,9.6
2023-04-11T04:57:54.000Z,8.7
2023-04-11T04:59:00.000Z,9
2023-04-11T05:00:06.000Z,8.7
2023-04-11T05:01:12.000Z,9
2023-04-11T05:02:18.000Z,9.6
2023-04-11T05:03:24.000Z,9.3
2023-04-11T05:05:36.000Z,9
2023-04-11T05:06:43.000Z,9
2023-04-11T05:07:49.000Z,9
2023-04-11T05:08:55.000Z,8.3
2023-04-11T05:10:01.000Z,9
2023-04-11T05:11:06.000Z,8.7
2023-04-11T05:12:12.000Z,9.6
2023-04-11T05:13:18.000Z,8.7
2023-04-11T05:14:24.000Z,9
2023-04-11T05:16:36.000Z,9.6
2023-04-11T05:17:42.000Z,9.3
2023-04-11T05:18:48.000Z,9
2023-04-11T05:19:54.000Z,9.3
2023-04-11T05:21:00.000Z,9.6
2023-04-11T05:22:07.000Z,8.3
2023-04-11T05:23:13.000Z,9.9
2023-04-11T05:24:19.000Z,9.3
2023-04-11T05:27:36.000Z,8.3
2023-04-11T05:28:41.000Z,9
2023-04-11T05:29:46.000Z,8.7
2023-04-11T05:30:52.000Z,9.6
2023-04-11T05:31:58.000Z,9
2023-04-11T05:33:04.000Z,9.3
2023-04-11T05:34:10.000Z,8.7
2023-04-11T05:35:16.000Z,9
2023-04-11T05:36:23.000Z,9
2023-04-11T05:37:29.000Z,9.3
2023-04-11T05:38:35.000Z,9.3
2023-04-11T05:39:41.000Z,8.7
2023-04-11T05:40:46.000Z,9
2023-04-11T05:41:51.000Z,8.7
2023-04-11T05:42:57.000Z,9
2023-04-11T05:45:09.000Z,9
2023-04-11T05:46:15.000Z,9
2023-04-11T05:47:21.000Z,8.7
2023-04-11T05:48:27.000Z,8.7
2023-04-11T05:49:33.000Z,9.3
2023-04-11T05:50:40.000Z,9
2023-04-11T05:51:46.000Z,9
2023-04-11T05:52:52.000Z,9.3
2023-04-11T05:55:04.000Z,9
2023-04-11T05:56:09.000Z,9.6
2023-04-11T05:57:14.000Z,9.3
2023-04-11T05:58:20.000Z,9.3
2023-04-11T05:59:26.000Z,9.3
2023-04-11T06:00:32.000Z,8.7
2023-04-11T06:01:38.000Z,8.7
2023-04-11T06:02:44.000Z,8.7
2023-04-11T06:03:50.000Z,8.7
2023-04-11T06:04:57.000Z,9.3
2023-04-11T06:06:03.000Z,9.3
2023-04-11T06:07:09.000Z,8.7
2023-04-11T06:08:14.000Z,9
2023-04-11T06:09:19.000Z,9.9
2023-04-11T06:11:31.000Z,9.3
2023-04-11T06:12:36.000Z,9.3
2023-04-11T06:13:42.000Z,9
2023-04-11T06:14:48.000Z,8.3
2023-04-11T06:15:54.000Z,8.3
2023-04-11T06:17:00.000Z,8.7
2023-04-11T06:18:07.000Z,8.7
2023-04-11T06:21:25.000Z,8.3
2023-04-11T06:22:31.000Z,8.7
2023-04-11T06:23:36.000Z,8.7
2023-04-11T06:24:41.000Z,9
2023-04-11T06:25:47.000Z,8.3
2023-04-11T06:26:53.000Z,9.6
2023-04-11T06:27:59.000Z,9.6
2023-04-11T06:29:06.000Z,8.7
2023-04-11T06:30:12.000Z,9
2023-04-11T06:31:18.000Z,9
2023-04-11T06:34:36.000Z,9.3
2023-04-11T06:35:42.000Z,9
2023-04-11T06:37:54.000Z,8.7
2023-04-11T06:39:00.000Z,8.7
2023-04-11T06:40:05.000Z,9
2023-04-11T06:41:10.000Z,9.3
2023-04-11T06:42:16.000Z,8.7
2023-04-11T06:43:23.000Z,9.3
2023-04-11T06:44:29.000Z,9.6
2023-04-11T06:45:35.000Z,9.6
2023-04-11T06:47:47.000Z,9
2023-04-11T06:48:53.000Z,9
2023-04-11T06:49:59.000Z,9
2023-04-11T06:51:05.000Z,8.3
2023-04-11T06:52:11.000Z,8
2023-04-11T06:53:17.000Z,8.7
2023-04-11T06:55:29.000Z,9.3
2023-04-11T06:56:35.000Z,8.3
2023-04-11T06:57:41.000Z,9
2023-04-11T06:58:47.000Z,9.3
2023-04-11T06:59:53.000Z,8.7
2023-04-11T07:00:59.000Z,8.3
2023-04-11T07:02:05.000Z,8.7
2023-04-11T07:03:11.000Z,9.6
2023-04-11T07:04:17.000Z,9.3
2023-04-11T07:06:29.000Z,8.7
2023-04-11T07:07:35.000Z,8.7
2023-04-11T07:08:41.000Z,9.3
2023-04-11T07:09:47.000Z,9
2023-04-11T07:11:59.000Z,9.3
2023-04-11T07:13:05.000Z,9
2023-04-11T07:14:11.000Z,8.7
2023-04-11T07:15:17.000Z,9.3
2023-04-11T07:18:35.000Z,8.7
2023-04-11T07:21:53.000Z,9.3
2023-04-11T07:22:59.000Z,9.3
2023-04-11T07:24:05.000Z,9.3
2023-04-11T07:25:11.000Z,8.7
2023-04-11T07:26:17.000Z,8.3
2023-04-11T07:27:23.000Z,8.7
2023-04-11T07:28:29.000Z,8.3
2023-04-11T07:29:35.000Z,9
2023-04-11T07:30:41.000Z,8.3
2023-04-11T07:31:47.000Z,8.3
2023-04-11T07:32:53.000Z,9
2023-04-11T07:33:59.000Z,8.7
2023-04-11T07:35:05.000Z,9
2023-04-11T07:36:11.000Z,9.3
2023-04-11T07:37:17.000Z,8.3
2023-04-11T07:38:23.000Z,8.7
2023-04-11T07:39:30.000Z,8.7
2023-04-11T07:41:41.000Z,8
2023-04-11T07:42:47.000Z,8.3
2023-04-11T07:43:53.000Z,9
2023-04-11T07:44:58.000Z,8.3
2023-04-11T07:46:03.000Z,8.7
2023-04-11T07:47:09.000Z,8.7
2023-04-11T07:48:15.000Z,9
2023-04-11T07:49:21.000Z,8.3
2023-04-11T07:50:27.000Z,9
2023-04-11T07:51:33.000Z,8.7
2023-04-11T07:52:40.000Z,8.3
2023-04-11T07:53:46.000Z,8.7
2023-04-11T07:54:52.000Z,9
2023-04-11T07:55:58.000Z,8.3
2023-04-11T07:58:09.000Z,9
2023-04-11T07:59:14.000Z,9
2023-04-11T08:01:26.000Z,8.7
2023-04-11T08:02:31.000Z,8.7
2023-04-11T08:03:36.000Z,8.7
2023-04-11T08:04:42.000Z,8.7
2023-04-11T08:05:49.000Z,8.7
2023-04-11T08:06:55.000Z,8
2023-04-11T08:08:01.000Z,9
2023-04-11T08:09:07.000Z,8
2023-04-11T08:11:19.000Z,8.7
2023-04-11T08:12:25.000Z,8.7
2023-04-11T08:13:31.000Z,9
2023-04-11T08:14:37.000Z,8.3
2023-04-11T08:15:43.000Z,8
2023-04-11T08:16:49.000Z,8.3
2023-04-11T08:17:54.000Z,8
2023-04-11T08:19:00.000Z,8.7
2023-04-11T08:20:07.000Z,9
2023-04-11T08:21:13.000Z,8
2023-04-11T08:22:19.000Z,9.3
2023-04-11T08:23:25.000Z,8.3
2023-04-11T08:24:31.000Z,8.3
2023-04-11T08:25:37.000Z,8
2023-04-11T08:26:42.000Z,9.3
2023-04-11T08:27:47.000Z,8.3
2023-04-11T08:28:53.000Z,9.3
2023-04-11T08:29:59.000Z,9
2023-04-11T08:31:05.000Z,8.3
2023-04-11T08:32:11.000Z,9.3
2023-04-11T08:33:18.000Z,8.3
2023-04-11T08:35:30.000Z,8.3
2023-04-11T08:36:36.000Z,8.3
2023-04-11T08:37:42.000Z,7.7
2023-04-11T08:38:48.000Z,8.3
2023-04-11T08:39:54.000Z,8.7
2023-04-11T08:41:00.000Z,8.3
2023-04-11T08:43:11.000Z,9
2023-04-11T08:44:16.000Z,8.7
2023-04-11T08:45:21.000Z,9
2023-04-11T08:46:27.000Z,8.7
2023-04-11T08:48:40.000Z,9
2023-04-11T08:49:46.000Z,9
2023-04-11T08:50:52.000Z,9
2023-04-11T08:53:04.000Z,8.3
2023-04-11T08:54:10.000Z,8.7
2023-04-11T08:56:22.000Z,9
2023-04-11T08:57:28.000Z,8.7
2023-04-11T08:59:41.000Z,8.3
2023-04-11T09:00:47.000Z,8.3
2023-04-11T09:01:52.000Z,8.7
2023-04-11T09:02:58.000Z,8.3
2023-04-11T09:04:04.000Z,9
2023-04-11T09:05:10.000Z,9
2023-04-11T09:08:28.000Z,8.3
2023-04-11T09:09:34.000Z,8.3
2023-04-11T09:10:40.000Z,8.3
2023-04-11T09:11:46.000Z,8
2023-04-11T09:12:52.000Z,7.4
2023-04-11T09:13:59.000Z,9
2023-04-11T09:15:05.000Z,8
2023-04-11T09:16:10.000Z,9
2023-04-11T09:17:16.000Z,8.3
2023-04-11T09:18:22.000Z,8.3
2023-04-11T09:19:28.000Z,8.3
2023-04-11T09:20:34.000Z,8
2023-04-11T09:21:40.000Z,8.3
2023-04-11T09:22:46.000Z,8.7
2023-04-11T09:23:52.000Z,8
2023-04-11T09:24:58.000Z,9
2023-04-11T09:26:04.000Z,8.3
2023-04-11T09:27:11.000Z,9
2023-04-11T09:28:17.000Z,8
2023-04-11T09:29:23.000Z,9
2023-04-11T09:30:28.000Z,8.3
2023-04-11T09:31:33.000Z,8.7
2023-04-11T09:32:39.000Z,8.3
2023-04-11T09:33:45.000Z,8.7
2023-04-11T09:34:51.000Z,9
2023-04-11T09:35:57.000Z,8.7
2023-04-11T09:37:03.000Z,8.7
2023-04-11T09:38:09.000Z,8.3
2023-04-11T09:39:15.000Z,9
2023-04-11T09:40:21.000Z,7.7
2023-04-11T09:41:28.000Z,8.3
2023-04-11T09:42:33.000Z,9
2023-04-11T09:43:38.000Z,8.3
2023-04-11T09:44:44.000Z,8
2023-04-11T09:45:50.000Z,8.3
2023-04-11T09:46:56.000Z,8.7
2023-04-11T09:48:02.000Z,9.3
2023-04-11T09:49:08.000Z,8
2023-04-11T09:53:32.000Z,8.7
2023-04-11T09:54:38.000Z,8.7
2023-04-11T09:55:44.000Z,8.3
2023-04-11T09:57:56.000Z,8.7
2023-04-11T09:59:02.000Z,8
2023-04-11T10:00:07.000Z,8.3
2023-04-11T10:01:12.000Z,9.3
2023-04-11T10:02:18.000Z,7.7
2023-04-11T10:03:24.000Z,8.7
2023-04-11T10:04:30.000Z,8.3
2023-04-11T10:05:36.000Z,8.3
2023-04-11T10:06:42.000Z,9.3
2023-04-11T10:07:48.000Z,8.3
2023-04-11T10:08:55.000Z,8.3
2023-04-11T10:10:01.000Z,8.3
2023-04-11T10:11:07.000Z,8.7
2023-04-11T10:12:12.000Z,8.7
2023-04-11T10:14:23.000Z,8.3
2023-04-11T10:15:29.000Z,8.7
2023-04-11T10:16:35.000Z,8.7
2023-04-11T10:17:41.000Z,8.7
2023-04-11T10:18:47.000Z,9
2023-04-11T10:19:53.000Z,9
2023-04-11T10:20:59.000Z,8.3
2023-04-11T10:24:18.000Z,8.3
2023-04-11T10:25:24.000Z,8.3
2023-04-11T10:26:30.000Z,8.7
2023-04-11T10:27:35.000Z,8
2023-04-11T10:28:40.000Z,8.7
2023-04-11T10:29:46.000Z,8.7
2023-04-11T10:30:52.000Z,9.9
2023-04-11T10:31:58.000Z,8.7
2023-04-11T10:33:04.000Z,9
2023-04-11T10:35:17.000Z,9
2023-04-11T10:36:23.000Z,8.7
2023-04-11T10:37:29.000Z,8.3
2023-04-11T10:38:35.000Z,8.7
2023-04-11T10:39:41.000Z,9
2023-04-11T10:40:47.000Z,8
2023-04-11T10:41:53.000Z,8.7
2023-04-11T10:42:59.000Z,8
2023-04-11T10:46:16.000Z,8.3
2023-04-11T10:47:22.000Z,8.3
2023-04-11T10:48:27.000Z,9.3
2023-04-11T10:49:33.000Z,8.7
2023-04-11T10:50:39.000Z,8.7
2023-04-11T10:51:45.000Z,8.3
2023-04-11T10:53:57.000Z,8.7
2023-04-11T10:55:03.000Z,9
2023-04-11T10:56:09.000Z,8.7
2023-04-11T10:57:15.000Z,9
2023-04-11T10:58:21.000Z,8.7
2023-04-11T10:59:27.000Z,8.7
2023-04-11T11:00:33.000Z,8.3
2023-04-11T11:01:40.000Z,8.7
2023-04-11T11:02:46.000Z,8.3
2023-04-11T11:03:51.000Z,8.3
2023-04-11T11:08:15.000Z,8.3
2023-04-11T11:09:21.000Z,8.7
2023-04-11T11:10:27.000Z,8.3
2023-04-11T11:11:33.000Z,8
2023-04-11T11:12:39.000Z,9
2023-04-11T11:13:45.000Z,8.7
2023-04-11T11:14:51.000Z,9
2023-04-11T11:15:57.000Z,9.3
2023-04-11T11:17:04.000Z,9.3
2023-04-11T11:18:09.000Z,8
2023-04-11T11:19:15.000Z,8.7
2023-04-11T11:20:21.000Z,9
2023-04-11T11:21:27.000Z,8.7
2023-04-11T11:22:33.000Z,9
2023-04-11T11:23:39.000Z,9.3
2023-04-11T11:24:45.000Z,8.7
2023-04-11T11:25:51.000Z,8.3
2023-04-11T11:26:57.000Z,8.7
2023-04-11T11:28:03.000Z,8.7
2023-04-11T11:30:16.000Z,8.7
2023-04-11T11:31:22.000Z,9
2023-04-11T11:33:33.000Z,9.3
2023-04-11T11:34:39.000Z,9.3
2023-04-11T11:36:51.000Z,9
2023-04-11T11:37:57.000Z,9.3
2023-04-11T11:39:02.000Z,8
2023-04-11T11:41:14.000Z,9
2023-04-11T11:43:27.000Z,9
2023-04-11T11:44:33.000Z,9
2023-04-11T11:45:39.000Z,8.3
2023-04-11T11:46:45.000Z,8.7
2023-04-11T11:47:51.000Z,9
2023-04-11T11:48:57.000Z,8.7
2023-04-11T11:50:03.000Z,9.6
2023-04-11T11:51:09.000Z,9
2023-04-11T11:52:15.000Z,8.7
2023-04-11T11:53:20.000Z,9
2023-04-11T11:54:26.000Z,8.3
2023-04-11T11:55:32.000Z,9
2023-04-11T11:56:38.000Z,9.6
2023-04-11T11:57:45.000Z,9.6
2023-04-11T11:58:51.000Z,8.7
2023-04-11T11:59:57.000Z,9.3
2023-04-11T12:01:03.000Z,8.7
2023-04-11T12:02:09.000Z,9.6
2023-04-11T12:03:15.000Z,9
2023-04-11T12:04:20.000Z,8.7
2023-04-11T12:05:25.000Z,9
2023-04-11T12:06:31.000Z,9
2023-04-11T12:07:37.000Z,8.7
2023-04-11T12:08:43.000Z,9
2023-04-11T12:09:49.000Z,9.6
2023-04-11T12:10:55.000Z,10.3
2023-04-11T12:12:02.000Z,8.3
2023-04-11T12:13:08.000Z,9
2023-04-11T12:14:14.000Z,8.7
2023-04-11T12:15:20.000Z,9.6
2023-04-11T12:16:25.000Z,9.3
2023-04-11T12:17:31.000Z,9.3
2023-04-11T12:18:36.000Z,9
2023-04-11T12:19:42.000Z,9
2023-04-11T12:20:48.000Z,9.6
2023-04-11T12:21:54.000Z,9.6
2023-04-11T12:23:00.000Z,9.6
2023-04-11T12:25:13.000Z,9.6
2023-04-11T12:26:19.000Z,9.3
2023-04-11T12:27:25.000Z,9.3
2023-04-11T12:28:31.000Z,9.3
2023-04-11T12:29:37.000Z,9.6
2023-04-11T12:30:43.000Z,9.3
2023-04-11T12:31:49.000Z,8.7
2023-04-11T12:32:54.000Z,9.6
2023-04-11T12:34:00.000Z,9.3
2023-04-11T12:36:12.000Z,9.3
2023-04-11T12:37:18.000Z,9.3
2023-04-11T12:38:23.000Z,9.3
2023-04-11T12:39:29.000Z,9.6
2023-04-11T12:40:35.000Z,9.3
2023-04-11T12:41:41.000Z,9.9
2023-04-11T12:42:47.000Z,10.3
2023-04-11T12:43:53.000Z,9.3
2023-04-11T12:52:42.000Z,9.3
2023-04-11T12:54:54.000Z,9.9
2023-04-11T13:00:24.000Z,9.6
2023-04-11T13:05:54.000Z,9.9
2023-04-11T13:06:59.000Z,9.9
2023-04-11T13:11:24.000Z,9.3
2023-04-11T13:14:42.000Z,9.6
2023-04-11T13:18:00.000Z,9.9
2023-04-11T13:22:25.000Z,9.6
2023-04-11T13:24:37.000Z,9.6
2023-04-11T13:25:43.000Z,9.9
2023-04-11T13:26:49.000Z,10.6
2023-04-11T13:27:55.000Z,10.3
2023-04-11T13:31:13.000Z,9.6
2023-04-11T13:32:18.000Z,10.6
2023-04-11T13:38:55.000Z,9.9
2023-04-11T13:45:31.000Z,9.9
2023-04-11T13:47:43.000Z,9.9
2023-04-11T13:48:49.000Z,10.3
2023-04-11T13:52:07.000Z,10.6
2023-04-11T13:54:19.000Z,10.6
2023-04-11T13:56:31.000Z,10.3
2023-04-11T13:59:49.000Z,10.3
2023-04-11T14:00:56.000Z,10.3
2023-04-11T14:02:02.000Z,9.9
2023-04-11T14:03:08.000Z,9.3
2023-04-11T14:07:32.000Z,10.9
2023-04-11T14:09:44.000Z,10.3
2023-04-11T14:10:50.000Z,9.9
2023-04-11T14:11:56.000Z,9.9
2023-04-11T14:13:02.000Z,10.3
2023-04-11T14:15:14.000Z,9.6
2023-04-11T14:16:21.000Z,10.9
2023-04-11T14:17:27.000Z,9.6
2023-04-11T14:18:33.000Z,10.9
2023-04-11T14:19:39.000Z,10.6
2023-04-11T14:21:51.000Z,10.6
2023-04-11T14:22:57.000Z,9.9
2023-04-11T14:26:15.000Z,9.9
2023-04-11T14:29:33.000Z,10.6
2023-04-11T14:32:51.000Z,10.9
2023-04-11T14:33:58.000Z,10.9
2023-04-11T14:35:04.000Z,10.9
2023-04-11T14:36:10.000Z,9.9
2023-04-11T14:38:22.000Z,10.3
2023-04-11T14:39:28.000Z,10.3
2023-04-11T14:41:40.000Z,9.9
2023-04-11T14:42:47.000Z,10.9
2023-04-11T14:44:59.000Z,10.6
2023-04-11T14:47:11.000Z,10.3
2023-04-11T14:48:17.000Z,10.3
2023-04-11T14:51:35.000Z,9.9
2023-04-11T14:53:48.000Z,9.9
2023-04-11T14:54:54.000Z,9.9
2023-04-11T14:56:00.000Z,10.6
2023-04-11T14:57:06.000Z,10.9
2023-04-11T14:58:12.000Z,10.3
2023-04-11T15:01:31.000Z,10.6
2023-04-11T15:02:37.000Z,9.6
2023-04-11T15:03:42.000Z,10.6
2023-04-11T15:11:25.000Z,10.6
2023-04-11T15:12:31.000Z,9.3
2023-04-11T15:13:37.000Z,9.9
2023-04-11T15:14:43.000Z,10.3
2023-04-11T15:16:55.000Z,9.6
2023-04-11T15:20:13.000Z,10.3
2023-04-11T15:21:20.000Z,9.9
2023-04-11T15:22:26.000Z,10.6
2023-04-11T15:24:38.000Z,10.3
2023-04-11T15:25:44.000Z,10.6
2023-04-11T15:27:56.000Z,10.6
2023-04-11T15:29:02.000Z,10.6
2023-04-11T15:30:07.000Z,9.3
2023-04-11T15:33:26.000Z,10.9
2023-04-11T15:34:32.000Z,9.9
2023-04-11T15:35:38.000Z,9.6
2023-04-11T15:36:44.000Z,10.6
2023-04-11T15:37:50.000Z,10.6
2023-04-11T15:38:56.000Z,9.9
2023-04-11T15:41:09.000Z,10.6
2023-04-11T15:43:21.000Z,10.6
2023-04-11T15:44:27.000Z,10.3
2023-04-11T15:46:39.000Z,10.6
2023-04-11T15:47:45.000Z,10.6
2023-04-11T15:48:51.000Z,10.3
2023-04-11T15:52:10.000Z,11.2
2023-04-11T15:53:15.000Z,10.3
2023-04-11T15:54:21.000Z,10.3
2023-04-11T15:55:27.000Z,9.9
2023-04-11T15:58:45.000Z,10.3
2023-04-11T15:59:52.000Z,10.3
2023-04-11T16:03:10.000Z,9.9
2023-04-11T16:04:16.000Z,10.3
2023-04-11T16:09:47.000Z,10.6
2023-04-11T16:13:05.000Z,10.6
2023-04-11T16:17:29.000Z,10.9
2023-04-11T16:23:00.000Z,9.9
2023-04-11T16:24:06.000Z,10.6
2023-04-11T16:28:30.000Z,10.3
2023-04-11T16:32:55.000Z,10.3
2023-04-11T16:34:01.000Z,9.6
2023-04-11T16:36:13.000Z,10.9
2023-04-11T16:40:37.000Z,10.6
2023-04-11T16:41:44.000Z,9.9
2023-04-11T16:42:50.000Z,10.9
2023-04-11T16:43:56.000Z,9.6
2023-04-11T16:45:02.000Z,10.6
2023-04-11T16:46:08.000Z,9.9
2023-04-11T16:47:14.000Z,10.6
2023-04-11T16:49:27.000Z,10.9
2023-04-11T16:50:33.000Z,10.3
2023-04-11T16:51:39.000Z,10.6
2023-04-11T16:52:45.000Z,10.6
2023-04-11T16:53:52.000Z,10.6
2023-04-11T16:54:58.000Z,10.9
2023-04-11T16:56:04.000Z,9.9
2023-04-11T16:59:23.000Z,11.6
2023-04-11T17:00:29.000Z,10.6
2023-04-11T17:01:34.000Z,10.3
2023-04-11T17:02:40.000Z,9.9
2023-04-11T17:03:47.000Z,10.9
2023-04-11T17:04:53.000Z,10.9
2023-04-11T17:05:59.000Z,11.2
2023-04-11T17:07:05.000Z,10.9
2023-04-11T17:08:11.000Z,9.9
2023-04-11T17:09:17.000Z,10.6
2023-04-11T17:11:30.000Z,10.9
2023-04-11T17:12:36.000Z,10.6
2023-04-11T17:13:42.000Z,9.9
2023-04-11T17:14:48.000Z,10.3
2023-04-11T17:15:55.000Z,10.9
2023-04-11T17:17:01.000Z,10.6
2023-04-11T17:18:07.000Z,9.9
2023-04-11T17:21:26.000Z,10.6
2023-04-11T17:22:32.000Z,10.6
2023-04-11T17:23:38.000Z,10.3
2023-04-11T17:24:44.000Z,10.3
2023-04-11T17:26:57.000Z,10.3
2023-04-11T17:28:03.000Z,10.9
2023-04-11T17:29:09.000Z,10.3
2023-04-11T17:31:21.000Z,10.9
2023-04-11T17:32:27.000Z,11.2
2023-04-11T17:33:34.000Z,10.3
2023-04-11T17:34:40.000Z,10.9
2023-04-11T17:35:46.000Z,10.3
2023-04-11T17:37:58.000Z,10.6
2023-04-11T17:39:05.000Z,10.3
2023-04-11T17:40:11.000Z,10.6
2023-04-11T17:42:23.000Z,10.6
2023-04-11T17:44:36.000Z,9.9
2023-04-11T17:46:49.000Z,10.6
2023-04-11T17:49:01.000Z,10.6
2023-04-11T17:50:08.000Z,10.3
2023-04-11T17:51:14.000Z,10.9
2023-04-11T17:52:21.000Z,10.6
2023-04-11T17:54:33.000Z,9.9
2023-04-11T17:56:46.000Z,9.9
2023-04-11T17:57:52.000Z,9.9
2023-04-11T17:58:59.000Z,9.6
2023-04-11T18:00:06.000Z,9.9
2023-04-11T18:01:13.000Z,9.6
2023-04-11T18:03:26.000Z,11.6
2023-04-11T18:04:33.000Z,10.9
2023-04-11T18:05:39.000Z,10.3
2023-04-11T18:06:46.000Z,10.9
2023-04-11T18:07:53.000Z,10.9
2023-04-11T18:08:59.000Z,10.3
2023-04-11T18:10:06.000Z,9.6
2023-04-11T18:11:13.000Z,9.6
2023-04-11T18:12:19.000Z,10.3
2023-04-11T18:13:26.000Z,10.3
2023-04-11T18:14:32.000Z,10.9
2023-04-11T18:16:46.000Z,10.9
2023-04-11T18:17:52.000Z,10.6
2023-04-11T18:19:06.000Z,10.3
2023-04-11T18:20:13.000Z,10.3
2023-04-11T18:21:19.000Z,9.9
2023-04-11T18:24:39.000Z,10.3
2023-04-11T18:25:46.000Z,10.3
2023-04-11T18:27:59.000Z,9.9
2023-04-11T18:29:06.000Z,9.9
2023-04-11T18:30:13.000Z,10.3
2023-04-11T18:31:19.000Z,10.9
2023-04-11T18:32:26.000Z,10.3
2023-04-11T18:33:33.000Z,9.6
2023-04-11T18:35:46.000Z,9.6
2023-04-11T18:36:52.000Z,10.9
2023-04-11T18:37:59.000Z,9.9
2023-04-11T18:39:06.000Z,9.9
2023-04-11T18:41:19.000Z,10.3
2023-04-11T18:42:26.000Z,9.9
2023-04-11T18:43:32.000Z,10.6
2023-04-11T18:44:39.000Z,10.6
2023-04-11T18:45:46.000Z,11.2
2023-04-11T18:46:52.000Z,10.3
2023-04-11T18:47:59.000Z,10.3
2023-04-11T18:50:12.000Z,10.6
2023-04-11T18:51:19.000Z,9.9
2023-04-11T18:52:25.000Z,10.6
2023-04-11T18:53:32.000Z,9.9
2023-04-11T18:54:39.000Z,10.6
2023-04-11T18:55:45.000Z,9.6
2023-04-11T18:56:52.000Z,10.6
2023-04-11T18:57:59.000Z,10.6
2023-04-11T18:59:06.000Z,10.3
2023-04-11T19:00:12.000Z,10.3
2023-04-11T19:01:19.000Z,9.9
2023-04-11T19:02:26.000Z,9.9
2023-04-11T19:04:38.000Z,9.9
2023-04-11T19:05:45.000Z,9.9